createdAt,value
2022-11-15T00:00:19.746Z,0.00
2022-11-15T00:01:19.656Z,0.00
2022-11-15T00:02:19.624Z,0.00
2022-11-15T00:03:19.494Z,0.00
2022-11-15T00:04:19.412Z,0.00
2022-11-15T00:05:19.331Z,0.00
2022-11-15T00:06:19.245Z,0.00
2022-11-15T00:07:48.299Z,0.00
2022-11-15T00:08:19.186Z,0.00
2022-11-15T00:09:18.999Z,0.00
2022-11-15T00:10:18.917Z,0.00
2022-11-15T00:11:18.837Z,0.00
2022-11-15T00:12:18.751Z,0.00
2022-11-15T00:13:18.670Z,0.00
2022-11-15T00:14:18.689Z,0.00
2022-11-15T00:15:18.495Z,0.00
2022-11-15T00:16:18.416Z,0.00
2022-11-15T00:17:18.330Z,0.00
2022-11-15T00:18:18.248Z,0.00
2022-11-15T00:19:18.171Z,0.00
2022-11-15T00:20:18.089Z,0.00
2022-11-15T00:21:17.999Z,0.00
2022-11-15T00:22:17.917Z,0.00
2022-11-15T00:23:17.834Z,0.00
2022-11-15T00:24:17.755Z,0.00
2022-11-15T00:25:17.674Z,0.00
2022-11-15T00:26:17.600Z,0.00
2022-11-15T00:27:17.527Z,0.00
2022-11-15T00:28:17.423Z,0.00
2022-11-15T00:29:17.347Z,0.00
2022-11-15T00:30:17.261Z,0.00
2022-11-15T00:31:17.175Z,0.00
2022-11-15T00:32:17.094Z,0.00
2022-11-15T00:33:17.005Z,0.00
2022-11-15T00:34:16.933Z,0.00
2022-11-15T00:35:16.844Z,0.00
2022-11-15T00:36:16.763Z,0.00
2022-11-15T00:37:16.674Z,0.00
2022-11-15T00:38:16.595Z,0.00
2022-11-15T00:39:16.513Z,0.00
2022-11-15T00:40:16.429Z,0.00
2022-11-15T00:41:16.344Z,0.00
2022-11-15T00:42:16.263Z,0.00
2022-11-15T00:43:16.180Z,0.00
2022-11-15T00:44:16.099Z,0.00
2022-11-15T00:45:16.023Z,0.00
2022-11-15T00:46:15.932Z,0.00
2022-11-15T00:47:15.846Z,0.00
2022-11-15T00:48:15.764Z,0.00
2022-11-15T00:49:15.685Z,0.00
2022-11-15T00:50:15.715Z,0.00
2022-11-15T00:51:15.520Z,0.00
2022-11-15T00:52:15.431Z,0.00
2022-11-15T00:53:15.355Z,0.00
2022-11-15T00:54:15.273Z,0.00
2022-11-15T00:55:15.186Z,0.00
2022-11-15T00:56:15.101Z,0.00
2022-11-15T00:57:15.016Z,0.00
2022-11-15T00:58:14.938Z,0.00
2022-11-15T00:59:14.855Z,0.00
2022-11-15T01:00:14.770Z,0.00
2022-11-15T01:01:14.748Z,0.00
2022-11-15T01:02:14.600Z,0.00
2022-11-15T01:03:14.518Z,0.00
2022-11-15T01:04:14.436Z,0.00
2022-11-15T01:05:14.362Z,0.00
2022-11-15T01:06:14.270Z,0.00
2022-11-15T01:07:14.294Z,0.00
2022-11-15T01:08:14.111Z,0.00
2022-11-15T01:09:14.023Z,0.00
2022-11-15T01:10:13.943Z,0.00
2022-11-15T01:11:13.857Z,0.00
2022-11-15T01:12:13.770Z,0.00
2022-11-15T01:13:13.693Z,0.00
2022-11-15T01:14:13.608Z,0.00
2022-11-15T01:15:13.532Z,0.00
2022-11-15T01:16:13.439Z,0.00
2022-11-15T01:17:13.355Z,0.00
2022-11-15T01:18:13.272Z,0.00
2022-11-15T01:19:13.195Z,0.00
2022-11-15T01:20:13.110Z,0.00
2022-11-15T01:21:13.034Z,0.00
2022-11-15T01:22:12.943Z,0.00
2022-11-15T01:23:12.864Z,0.00
2022-11-15T01:24:12.775Z,0.00
2022-11-15T01:25:12.702Z,0.00
2022-11-15T01:26:12.610Z,0.00
2022-11-15T01:27:12.528Z,0.00
2022-11-15T01:28:12.447Z,0.00
2022-11-15T01:29:12.362Z,0.00
2022-11-15T01:30:12.274Z,0.00
2022-11-15T01:31:12.200Z,0.00
2022-11-15T01:32:12.113Z,0.00
2022-11-15T01:33:12.032Z,0.00
2022-11-15T01:34:11.947Z,0.00
2022-11-15T01:35:11.861Z,0.00
2022-11-15T01:36:11.778Z,0.00
2022-11-15T01:37:11.696Z,0.00
2022-11-15T01:38:11.612Z,0.00
2022-11-15T01:39:11.532Z,0.00
2022-11-15T01:40:11.442Z,0.00
2022-11-15T01:41:11.361Z,0.00
2022-11-15T01:42:11.279Z,0.00
2022-11-15T01:43:11.202Z,0.00
2022-11-15T01:44:11.113Z,0.00
2022-11-15T01:45:11.029Z,0.00
2022-11-15T01:46:10.946Z,0.00
2022-11-15T01:47:10.868Z,0.00
2022-11-15T01:48:10.782Z,0.00
2022-11-15T01:49:10.700Z,0.00
2022-11-15T01:50:10.610Z,0.00
2022-11-15T01:51:10.531Z,0.00
2022-11-15T01:52:10.446Z,0.00
2022-11-15T01:53:10.370Z,0.00
2022-11-15T01:54:10.283Z,0.00
2022-11-15T01:55:10.197Z,0.00
2022-11-15T01:56:10.118Z,0.00
2022-11-15T01:57:10.028Z,0.00
2022-11-15T01:58:09.957Z,0.00
2022-11-15T01:59:09.865Z,0.00
2022-11-15T02:00:09.797Z,0.00
2022-11-15T02:01:09.770Z,0.00
2022-11-15T02:02:09.627Z,0.00
2022-11-15T02:03:09.534Z,0.00
2022-11-15T02:04:09.446Z,0.00
2022-11-15T02:05:09.367Z,0.00
2022-11-15T02:06:09.280Z,0.00
2022-11-15T02:07:09.241Z,0.00
2022-11-15T02:08:09.126Z,0.00
2022-11-15T02:09:09.035Z,0.00
2022-11-15T02:10:08.947Z,0.00
2022-11-15T02:11:08.862Z,0.00
2022-11-15T02:12:08.782Z,0.00
2022-11-15T02:13:08.701Z,0.00
2022-11-15T02:14:08.614Z,0.00
2022-11-15T02:15:08.539Z,0.00
2022-11-15T02:16:08.450Z,0.00
2022-11-15T02:17:08.366Z,0.00
2022-11-15T02:18:08.279Z,0.00
2022-11-15T02:19:08.203Z,0.00
2022-11-15T02:20:08.113Z,0.00
2022-11-15T02:21:08.032Z,0.00
2022-11-15T02:22:07.950Z,0.00
2022-11-15T02:23:07.869Z,0.00
2022-11-15T02:24:07.787Z,0.00
2022-11-15T02:25:07.699Z,0.00
2022-11-15T02:26:07.615Z,0.00
2022-11-15T02:27:07.536Z,0.00
2022-11-15T02:28:07.455Z,0.00
2022-11-15T02:29:07.367Z,0.00
2022-11-15T02:30:07.310Z,0.00
2022-11-15T02:31:07.196Z,0.00
2022-11-15T02:32:07.113Z,0.00
2022-11-15T02:33:07.035Z,0.00
2022-11-15T02:34:06.947Z,0.00
2022-11-15T02:35:06.866Z,0.00
2022-11-15T02:36:06.782Z,0.00
2022-11-15T02:37:06.702Z,0.00
2022-11-15T02:38:06.613Z,0.00
2022-11-15T02:39:06.532Z,0.00
2022-11-15T02:40:06.450Z,0.00
2022-11-15T02:41:06.365Z,0.00
2022-11-15T02:42:06.276Z,0.00
2022-11-15T02:43:08.409Z,0.00
2022-11-15T02:44:06.112Z,0.00
2022-11-15T02:45:06.028Z,0.00
2022-11-15T02:46:05.943Z,0.00
2022-11-15T02:47:05.866Z,0.00
2022-11-15T02:48:05.776Z,0.00
2022-11-15T02:49:05.697Z,0.00
2022-11-15T02:50:05.614Z,0.00
2022-11-15T02:51:05.530Z,0.00
2022-11-15T02:52:05.446Z,0.00
2022-11-15T02:53:05.363Z,0.00
2022-11-15T02:54:05.280Z,0.00
2022-11-15T02:55:05.194Z,0.00
2022-11-15T02:56:05.112Z,0.00
2022-11-15T02:57:05.031Z,0.00
2022-11-15T02:58:04.945Z,0.00
2022-11-15T02:59:04.868Z,0.00
2022-11-15T03:00:04.778Z,0.00
2022-11-15T03:01:04.782Z,0.00
2022-11-15T03:02:04.612Z,0.00
2022-11-15T03:03:04.528Z,0.00
2022-11-15T03:04:04.441Z,0.00
2022-11-15T03:05:04.359Z,0.00
2022-11-15T03:06:04.274Z,0.00
2022-11-15T03:07:04.254Z,0.00
2022-11-15T03:08:04.107Z,0.00
2022-11-15T03:09:04.028Z,0.00
2022-11-15T03:10:03.943Z,0.00
2022-11-15T03:11:03.863Z,0.00
2022-11-15T03:12:03.779Z,0.00
2022-11-15T03:13:03.695Z,0.00
2022-11-15T03:14:03.613Z,0.00
2022-11-15T03:15:03.527Z,0.00
2022-11-15T03:16:03.438Z,0.00
2022-11-15T03:17:03.360Z,0.00
2022-11-15T03:18:03.275Z,0.00
2022-11-15T03:19:03.192Z,0.00
2022-11-15T03:20:03.116Z,0.00
2022-11-15T03:21:03.024Z,0.00
2022-11-15T03:22:02.941Z,0.00
2022-11-15T03:23:02.860Z,0.00
2022-11-15T03:24:02.774Z,0.00
2022-11-15T03:25:02.689Z,0.00
2022-11-15T03:26:02.606Z,0.00
2022-11-15T03:27:02.535Z,0.00
2022-11-15T03:28:02.440Z,0.00
2022-11-15T03:29:02.353Z,0.00
2022-11-15T03:30:02.270Z,0.00
2022-11-15T03:31:02.190Z,0.00
2022-11-15T03:32:02.105Z,0.00
2022-11-15T03:33:02.019Z,0.00
2022-11-15T03:34:01.949Z,0.00
2022-11-15T03:35:01.856Z,0.00
2022-11-15T03:36:01.775Z,0.00
2022-11-15T03:37:01.684Z,0.00
2022-11-15T03:38:01.629Z,0.00
2022-11-15T03:39:01.534Z,0.00
2022-11-15T03:40:01.433Z,0.00
2022-11-15T03:41:01.352Z,0.00
2022-11-15T03:42:01.267Z,0.00
2022-11-15T03:43:01.188Z,0.00
2022-11-15T03:44:01.098Z,0.00
2022-11-15T03:45:01.017Z,0.00
2022-11-15T03:46:00.946Z,0.00
2022-11-15T03:47:00.850Z,0.00
2022-11-15T03:48:00.763Z,0.00
2022-11-15T03:49:00.685Z,0.00
2022-11-15T03:50:00.597Z,0.00
2022-11-15T03:51:00.517Z,0.00
2022-11-15T03:52:00.435Z,0.00
2022-11-15T03:53:00.350Z,0.00
2022-11-15T03:54:00.264Z,0.00
2022-11-15T03:55:00.183Z,0.00
2022-11-15T03:56:00.109Z,0.00
2022-11-15T03:57:00.015Z,0.00
2022-11-15T03:57:59.925Z,0.00
2022-11-15T03:58:59.844Z,0.00
2022-11-15T03:59:59.758Z,0.00
2022-11-15T04:00:59.718Z,0.00
2022-11-15T04:01:59.592Z,0.00
2022-11-15T04:02:59.509Z,0.00
2022-11-15T04:03:59.423Z,0.00
2022-11-15T04:04:59.347Z,0.00
2022-11-15T04:05:59.259Z,0.00
2022-11-15T04:06:59.262Z,0.00
2022-11-15T04:07:59.089Z,0.00
2022-11-15T04:08:59.005Z,0.00
2022-11-15T04:09:58.925Z,0.00
2022-11-15T04:10:59.026Z,0.00
2022-11-15T04:11:58.758Z,0.00
2022-11-15T04:12:58.673Z,0.00
2022-11-15T04:13:58.591Z,0.00
2022-11-15T04:14:58.510Z,0.00
2022-11-15T04:15:58.421Z,0.00
2022-11-15T04:16:58.340Z,0.00
2022-11-15T04:17:58.252Z,0.00
2022-11-15T04:18:58.172Z,0.00
2022-11-15T04:19:58.092Z,0.00
2022-11-15T04:20:58.003Z,0.00
2022-11-15T04:21:57.919Z,0.00
2022-11-15T04:22:57.837Z,0.00
2022-11-15T04:23:57.753Z,0.00
2022-11-15T04:24:57.669Z,0.00
2022-11-15T04:25:57.584Z,0.00
2022-11-15T04:26:57.525Z,0.00
2022-11-15T04:27:57.420Z,0.00
2022-11-15T04:28:57.333Z,0.00
2022-11-15T04:29:57.250Z,0.00
2022-11-15T04:30:57.175Z,0.00
2022-11-15T04:31:57.085Z,0.00
2022-11-15T04:32:56.997Z,0.00
2022-11-15T04:33:56.915Z,0.00
2022-11-15T04:34:56.828Z,0.00
2022-11-15T04:35:56.790Z,0.00
2022-11-15T04:36:56.665Z,0.00
2022-11-15T04:37:56.577Z,0.00
2022-11-15T04:38:56.491Z,0.00
2022-11-15T04:39:56.407Z,0.00
2022-11-15T04:40:56.329Z,0.00
2022-11-15T04:41:56.243Z,0.00
2022-11-15T04:43:02.259Z,0.00
2022-11-15T04:43:56.076Z,0.00
2022-11-15T04:44:55.988Z,0.00
2022-11-15T04:45:55.906Z,0.00
2022-11-15T04:46:55.825Z,0.00
2022-11-15T04:47:55.737Z,0.00
2022-11-15T04:48:58.831Z,0.00
2022-11-15T04:49:55.582Z,0.00
2022-11-15T04:50:55.489Z,0.00
2022-11-15T04:51:55.400Z,0.00
2022-11-15T04:52:55.315Z,0.00
2022-11-15T04:53:55.237Z,0.00
2022-11-15T04:54:55.151Z,0.00
2022-11-15T04:55:55.068Z,0.00
2022-11-15T04:56:54.985Z,0.00
2022-11-15T04:57:54.895Z,0.00
2022-11-15T04:58:54.817Z,0.00
2022-11-15T04:59:54.729Z,0.00
2022-11-15T05:00:54.711Z,0.00
2022-11-15T05:01:54.564Z,0.00
2022-11-15T05:02:54.477Z,0.00
2022-11-15T05:03:54.393Z,0.00
2022-11-15T05:04:54.308Z,0.00
2022-11-15T05:05:54.221Z,0.00
2022-11-15T05:06:54.187Z,0.00
2022-11-15T05:07:54.063Z,0.00
2022-11-15T05:08:53.973Z,0.00
2022-11-15T05:09:53.889Z,0.00
2022-11-15T05:10:53.801Z,0.00
2022-11-15T05:11:53.719Z,0.00
2022-11-15T05:12:53.640Z,0.00
2022-11-15T05:13:53.554Z,0.00
2022-11-15T05:14:53.471Z,0.00
2022-11-15T05:15:53.384Z,0.00
2022-11-15T05:16:53.301Z,0.00
2022-11-15T05:17:53.217Z,0.00
2022-11-15T05:18:53.129Z,0.00
2022-11-15T05:19:53.049Z,0.00
2022-11-15T05:20:52.963Z,0.00
2022-11-15T05:21:52.882Z,0.00
2022-11-15T05:22:52.794Z,0.00
2022-11-15T05:23:52.717Z,0.00
2022-11-15T05:24:52.629Z,0.00
2022-11-15T05:25:52.546Z,0.00
2022-11-15T05:26:52.463Z,0.00
2022-11-15T05:27:52.379Z,0.00
2022-11-15T05:28:52.290Z,0.00
2022-11-15T05:29:52.208Z,0.00
2022-11-15T05:30:52.126Z,0.00
2022-11-15T05:31:52.039Z,0.00
2022-11-15T05:32:51.958Z,0.00
2022-11-15T05:33:51.876Z,0.00
2022-11-15T05:34:51.785Z,0.00
2022-11-15T05:35:51.701Z,0.00
2022-11-15T05:36:51.618Z,0.00
2022-11-15T05:37:51.538Z,0.00
2022-11-15T05:38:51.454Z,0.00
2022-11-15T05:39:51.371Z,0.00
2022-11-15T05:40:51.282Z,0.00
2022-11-15T05:41:51.200Z,0.00
2022-11-15T05:42:51.112Z,0.00
2022-11-15T05:43:51.030Z,0.00
2022-11-15T05:44:50.951Z,0.00
2022-11-15T05:45:50.863Z,0.00
2022-11-15T05:46:50.776Z,0.00
2022-11-15T05:47:50.695Z,0.00
2022-11-15T05:48:50.606Z,0.00
2022-11-15T05:49:50.526Z,0.00
2022-11-15T05:50:50.443Z,0.00
2022-11-15T05:51:50.361Z,0.00
2022-11-15T05:52:50.274Z,0.00
2022-11-15T05:53:50.190Z,0.00
2022-11-15T05:54:50.110Z,0.00
2022-11-15T05:55:50.021Z,0.00
2022-11-15T05:56:49.933Z,0.00
2022-11-15T05:57:49.852Z,0.00
2022-11-15T05:58:49.766Z,0.00
2022-11-15T05:59:49.686Z,0.00
2022-11-15T06:00:49.596Z,0.00
2022-11-15T06:01:49.551Z,0.00
2022-11-15T06:02:49.429Z,4.00
2022-11-15T06:03:49.354Z,0.00
2022-11-15T06:04:49.262Z,0.00
2022-11-15T06:05:49.181Z,4.00
2022-11-15T06:06:49.130Z,0.00
2022-11-15T06:07:49.010Z,4.00
2022-11-15T06:08:48.930Z,0.00
2022-11-15T06:09:48.843Z,4.00
2022-11-15T06:10:48.762Z,4.00
2022-11-15T06:11:48.680Z,0.00
2022-11-15T06:12:48.591Z,4.00
2022-11-15T06:13:48.503Z,4.00
2022-11-15T06:14:48.421Z,4.00
2022-11-15T06:15:48.340Z,4.00
2022-11-15T06:16:48.261Z,8.00
2022-11-15T06:17:48.175Z,8.00
2022-11-15T06:18:48.086Z,12.00
2022-11-15T06:19:48.006Z,8.00
2022-11-15T06:20:47.914Z,12.00
2022-11-15T06:21:47.833Z,12.00
2022-11-15T06:22:47.744Z,16.00
2022-11-15T06:23:47.663Z,12.00
2022-11-15T06:24:47.579Z,16.00
2022-11-15T06:25:47.493Z,20.00
2022-11-15T06:26:47.411Z,16.00
2022-11-15T06:27:47.325Z,20.00
2022-11-15T06:28:47.244Z,24.00
2022-11-15T06:29:47.162Z,24.00
2022-11-15T06:30:52.038Z,24.00
2022-11-15T06:31:46.989Z,28.00
2022-11-15T06:32:46.916Z,28.00
2022-11-15T06:33:46.826Z,32.00
2022-11-15T06:34:46.738Z,36.00
2022-11-15T06:35:46.655Z,36.00
2022-11-15T06:36:46.566Z,40.00
2022-11-15T06:37:46.489Z,40.00
2022-11-15T06:38:46.401Z,40.00
2022-11-15T06:39:46.315Z,48.00
2022-11-15T06:40:46.226Z,48.00
2022-11-15T06:41:46.149Z,52.00
2022-11-15T06:42:46.059Z,52.00
2022-11-15T06:43:45.982Z,56.00
2022-11-15T06:44:45.895Z,56.00
2022-11-15T06:45:45.809Z,60.00
2022-11-15T06:46:45.724Z,64.00
2022-11-15T06:47:45.645Z,64.00
2022-11-15T06:48:45.554Z,68.00
2022-11-15T06:49:45.471Z,72.00
2022-11-15T06:50:45.394Z,72.00
2022-11-15T06:51:45.303Z,76.00
2022-11-15T06:52:45.218Z,80.00
2022-11-15T06:53:45.140Z,84.00
2022-11-15T06:54:45.049Z,88.00
2022-11-15T06:55:44.969Z,92.00
2022-11-15T06:56:44.884Z,96.00
2022-11-15T06:57:44.804Z,100.00
2022-11-15T06:58:44.714Z,104.00
2022-11-15T06:59:44.636Z,112.00
2022-11-15T07:00:44.544Z,120.00
2022-11-15T07:01:44.492Z,124.00
2022-11-15T07:02:44.377Z,132.00
2022-11-15T07:03:44.295Z,140.00
2022-11-15T07:04:44.208Z,144.00
2022-11-15T07:05:44.125Z,156.00
2022-11-15T07:06:44.055Z,164.00
2022-11-15T07:07:43.957Z,172.00
2022-11-15T07:08:43.874Z,180.00
2022-11-15T07:09:43.788Z,192.00
2022-11-15T07:10:43.709Z,200.00
2022-11-15T07:11:43.623Z,204.00
2022-11-15T07:12:43.533Z,220.00
2022-11-15T07:13:43.459Z,228.00
2022-11-15T07:14:43.369Z,240.00
2022-11-15T07:15:43.285Z,256.00
2022-11-15T07:16:43.199Z,272.00
2022-11-15T07:17:43.117Z,292.00
2022-11-15T07:18:43.032Z,308.00
2022-11-15T07:19:42.947Z,328.00
2022-11-15T07:20:42.861Z,356.00
2022-11-15T07:21:42.783Z,388.00
2022-11-15T07:22:42.698Z,420.00
2022-11-15T07:23:42.616Z,448.00
2022-11-15T07:24:42.524Z,480.00
2022-11-15T07:25:42.451Z,500.00
2022-11-15T07:26:42.369Z,524.00
2022-11-15T07:27:42.282Z,544.00
2022-11-15T07:28:42.196Z,564.00
2022-11-15T07:29:42.109Z,576.00
2022-11-15T07:30:45.222Z,596.00
2022-11-15T07:31:41.945Z,608.00
2022-11-15T07:32:41.858Z,620.00
2022-11-15T07:33:41.778Z,632.00
2022-11-15T07:34:41.692Z,640.00
2022-11-15T07:35:41.609Z,656.00
2022-11-15T07:36:41.526Z,668.00
2022-11-15T07:37:41.441Z,676.00
2022-11-15T07:38:43.149Z,684.00
2022-11-15T07:39:41.275Z,692.00
2022-11-15T07:40:41.195Z,696.00
2022-11-15T07:41:41.113Z,704.00
2022-11-15T07:42:41.024Z,708.00
2022-11-15T07:43:40.940Z,720.00
2022-11-15T07:44:40.863Z,732.00
2022-11-15T07:45:40.781Z,736.00
2022-11-15T07:46:40.692Z,752.00
2022-11-15T07:47:40.609Z,764.00
2022-11-15T07:48:44.462Z,776.00
2022-11-15T07:49:40.446Z,788.00
2022-11-15T07:50:40.362Z,800.00
2022-11-15T07:51:40.289Z,816.00
2022-11-15T07:52:40.203Z,820.00
2022-11-15T07:53:40.120Z,832.00
2022-11-15T07:54:40.048Z,852.00
2022-11-15T07:55:39.951Z,868.00
2022-11-15T07:56:39.864Z,880.00
2022-11-15T07:57:39.785Z,892.00
2022-11-15T07:58:39.704Z,912.00
2022-11-15T07:59:39.622Z,920.00
2022-11-15T08:00:39.534Z,932.00
2022-11-15T08:01:39.573Z,948.00
2022-11-15T08:02:39.555Z,964.00
2022-11-15T08:03:39.294Z,980.00
2022-11-15T08:04:39.206Z,1000.00
2022-11-15T08:05:39.130Z,1016.00
2022-11-15T08:06:39.044Z,1032.00
2022-11-15T08:07:38.964Z,1048.00
2022-11-15T08:08:38.883Z,1060.00
2022-11-15T08:09:38.797Z,1072.00
2022-11-15T08:10:40.852Z,1092.00
2022-11-15T08:11:38.638Z,1104.00
2022-11-15T08:12:38.553Z,1120.00
2022-11-15T08:13:38.470Z,1136.00
2022-11-15T08:14:38.386Z,1152.00
2022-11-15T08:15:38.313Z,1172.00
2022-11-15T08:16:38.223Z,1192.00
2022-11-15T08:17:38.145Z,1212.00
2022-11-15T08:18:38.061Z,1224.00
2022-11-15T08:19:37.980Z,1240.00
2022-11-15T08:20:37.896Z,1252.00
2022-11-15T08:21:37.823Z,1264.00
2022-11-15T08:22:37.732Z,1284.00
2022-11-15T08:23:37.655Z,1304.00
2022-11-15T08:24:37.571Z,1320.00
2022-11-15T08:25:37.494Z,1332.00
2022-11-15T08:26:37.413Z,1352.00
2022-11-15T08:27:37.380Z,1360.00
2022-11-15T08:28:37.249Z,1372.00
2022-11-15T08:29:37.169Z,1388.00
2022-11-15T08:30:37.091Z,1396.00
2022-11-15T08:31:37.010Z,1412.00
2022-11-15T08:32:36.925Z,1428.00
2022-11-15T08:33:36.855Z,1440.00
2022-11-15T08:34:36.765Z,1452.00
2022-11-15T08:35:36.680Z,1460.00
2022-11-15T08:36:43.268Z,1484.00
2022-11-15T08:37:36.520Z,1496.00
2022-11-15T08:38:36.438Z,1508.00
2022-11-15T08:39:36.366Z,1516.00
2022-11-15T08:40:36.278Z,1528.00
2022-11-15T08:41:36.196Z,1540.00
2022-11-15T08:42:36.115Z,1548.00
2022-11-15T08:43:36.038Z,1556.00
2022-11-15T08:44:35.960Z,1564.00
2022-11-15T08:45:35.876Z,1576.00
2022-11-15T08:46:35.798Z,1588.00
2022-11-15T08:47:35.716Z,1604.00
2022-11-15T08:48:35.794Z,1612.00
2022-11-15T08:49:35.549Z,1624.00
2022-11-15T08:50:35.479Z,1632.00
2022-11-15T08:51:35.398Z,1640.00
2022-11-15T08:52:35.307Z,1656.00
2022-11-15T08:53:35.227Z,1672.00
2022-11-15T08:54:35.150Z,1676.00
2022-11-15T08:55:35.075Z,1688.00
2022-11-15T08:56:34.986Z,1700.00
2022-11-15T08:57:34.908Z,1712.00
2022-11-15T08:58:35.148Z,1724.00
2022-11-15T08:59:34.747Z,1736.00
2022-11-15T09:00:34.675Z,1740.00
2022-11-15T09:01:34.605Z,1752.00
2022-11-15T09:02:34.510Z,1764.00
2022-11-15T09:03:34.429Z,1776.00
2022-11-15T09:04:34.347Z,1792.00
2022-11-15T09:05:34.270Z,1804.00
2022-11-15T09:06:34.184Z,1816.00
2022-11-15T09:07:34.167Z,1832.00
2022-11-15T09:08:47.465Z,1844.00
2022-11-15T09:09:33.950Z,1856.00
2022-11-15T09:10:33.869Z,1872.00
2022-11-15T09:11:33.806Z,1884.00
2022-11-15T09:12:33.707Z,1896.00
2022-11-15T09:13:33.631Z,1908.00
2022-11-15T09:14:33.555Z,1932.00
2022-11-15T09:15:33.471Z,1936.00
2022-11-15T09:16:33.388Z,1956.00
2022-11-15T09:17:33.309Z,1900.00
2022-11-15T09:18:33.572Z,1676.00
2022-11-15T09:19:33.150Z,1652.00
2022-11-15T09:20:33.073Z,1668.00
2022-11-15T09:21:32.991Z,1696.00
2022-11-15T09:22:32.916Z,1676.00
2022-11-15T09:23:32.835Z,1712.00
2022-11-15T09:24:32.756Z,1788.00
2022-11-15T09:25:32.675Z,1764.00
2022-11-15T09:26:32.598Z,1848.00
2022-11-15T09:27:32.518Z,1892.00
2022-11-15T09:28:32.611Z,1888.00
2022-11-15T09:29:32.359Z,1792.00
2022-11-15T09:30:32.352Z,1820.00
2022-11-15T09:31:32.202Z,1852.00
2022-11-15T09:32:37.870Z,1800.00
2022-11-15T09:33:32.263Z,1856.00
2022-11-15T09:34:31.962Z,2000.00
2022-11-15T09:35:31.887Z,2120.00
2022-11-15T09:36:31.809Z,2252.00
2022-11-15T09:37:31.728Z,2464.00
2022-11-15T09:38:31.849Z,2720.00
2022-11-15T09:39:31.569Z,3180.00
2022-11-15T09:40:31.487Z,3540.00
2022-11-15T09:41:31.406Z,4448.00
2022-11-15T09:42:31.330Z,5032.00
2022-11-15T09:43:31.257Z,5124.00
2022-11-15T09:44:31.176Z,5160.00
2022-11-15T09:45:31.105Z,6008.00
2022-11-15T09:46:31.015Z,6884.00
2022-11-15T09:47:30.935Z,7488.00
2022-11-15T09:48:31.155Z,7784.00
2022-11-15T09:49:30.780Z,7784.00
2022-11-15T09:50:30.704Z,6928.00
2022-11-15T09:51:30.629Z,6288.00
2022-11-15T09:52:30.553Z,5748.00
2022-11-15T09:54:01.089Z,6316.00
2022-11-15T09:54:52.231Z,6396.00
2022-11-15T09:55:30.307Z,6292.00
2022-11-15T09:56:30.235Z,6128.00
2022-11-15T09:57:30.152Z,4632.00
2022-11-15T09:58:30.664Z,3660.00
2022-11-15T09:59:29.998Z,2976.00
2022-11-15T10:00:47.383Z,2500.00
2022-11-15T10:01:29.876Z,2320.00
2022-11-15T10:02:29.763Z,2140.00
2022-11-15T10:03:29.684Z,2080.00
2022-11-15T10:04:29.611Z,2184.00
2022-11-15T10:05:29.531Z,2176.00
2022-11-15T10:06:29.449Z,2204.00
2022-11-15T10:07:29.464Z,2228.00
2022-11-15T10:08:29.590Z,2232.00
2022-11-15T10:09:29.215Z,2148.00
2022-11-15T10:10:29.232Z,2140.00
2022-11-15T10:11:38.234Z,2092.00
2022-11-15T10:12:28.986Z,2108.00
2022-11-15T10:13:28.903Z,2152.00
2022-11-15T10:14:28.838Z,2152.00
2022-11-15T10:15:28.753Z,2144.00
2022-11-15T10:16:28.671Z,2132.00
2022-11-15T10:17:28.592Z,2128.00
2022-11-15T10:18:28.745Z,2128.00
2022-11-15T10:19:28.438Z,2124.00
2022-11-15T10:20:28.367Z,2116.00
2022-11-15T10:21:28.284Z,2116.00
2022-11-15T10:22:28.209Z,2124.00
2022-11-15T10:23:28.131Z,2116.00
2022-11-15T10:24:28.052Z,2112.00
2022-11-15T10:25:27.982Z,2112.00
2022-11-15T10:26:27.894Z,2104.00
2022-11-15T10:27:27.818Z,2100.00
2022-11-15T10:28:27.737Z,2100.00
2022-11-15T10:29:27.683Z,2096.00
2022-11-15T10:30:27.584Z,2096.00
2022-11-15T10:31:27.507Z,2092.00
2022-11-15T10:32:27.427Z,2092.00
2022-11-15T10:33:27.345Z,2088.00
2022-11-15T10:34:27.275Z,2084.00
2022-11-15T10:35:27.192Z,2080.00
2022-11-15T10:36:27.119Z,2076.00
2022-11-15T10:37:27.044Z,2080.00
2022-11-15T10:38:26.959Z,2080.00
2022-11-15T10:39:26.881Z,2076.00
2022-11-15T10:40:26.810Z,2076.00
2022-11-15T10:41:26.731Z,2076.00
2022-11-15T10:42:26.653Z,2072.00
2022-11-15T10:43:26.573Z,2068.00
2022-11-15T10:44:26.495Z,2064.00
2022-11-15T10:45:26.415Z,2068.00
2022-11-15T10:46:46.689Z,2064.00
2022-11-15T10:47:26.263Z,2060.00
2022-11-15T10:48:26.182Z,2060.00
2022-11-15T10:49:26.105Z,2052.00
2022-11-15T10:50:26.030Z,2056.00
2022-11-15T10:51:25.951Z,2048.00
2022-11-15T10:52:25.873Z,2044.00
2022-11-15T10:53:25.814Z,2048.00
2022-11-15T10:54:25.720Z,2040.00
2022-11-15T10:55:25.642Z,2040.00
2022-11-15T10:56:25.570Z,2040.00
2022-11-15T10:57:25.484Z,2040.00
2022-11-15T10:58:25.410Z,2036.00
2022-11-15T10:59:25.330Z,2032.00
2022-11-15T11:00:25.252Z,2032.00
2022-11-15T11:01:25.217Z,2032.00
2022-11-15T11:02:25.103Z,2032.00
2022-11-15T11:03:25.022Z,2032.00
2022-11-15T11:04:24.947Z,2028.00
2022-11-15T11:05:24.864Z,2028.00
2022-11-15T11:06:24.797Z,2020.00
2022-11-15T11:07:24.904Z,2016.00
2022-11-15T11:08:24.634Z,2012.00
2022-11-15T11:09:24.557Z,2008.00
2022-11-15T11:10:55.008Z,2004.00
2022-11-15T11:11:24.404Z,2000.00
2022-11-15T11:12:24.325Z,1992.00
2022-11-15T11:13:24.261Z,1996.00
2022-11-15T11:14:24.185Z,1992.00
2022-11-15T11:15:24.093Z,1988.00
2022-11-15T11:16:24.019Z,1984.00
2022-11-15T11:17:23.949Z,1984.00
2022-11-15T11:18:23.859Z,1980.00
2022-11-15T11:19:23.782Z,1976.00
2022-11-15T11:20:23.708Z,1972.00
2022-11-15T11:21:28.904Z,1972.00
2022-11-15T11:22:23.553Z,1972.00
2022-11-15T11:23:23.478Z,1968.00
2022-11-15T11:24:23.401Z,1964.00
2022-11-15T11:25:23.320Z,1968.00
2022-11-15T11:26:23.244Z,1948.00
2022-11-15T11:27:23.167Z,1924.00
2022-11-15T11:28:23.091Z,1880.00
2022-11-15T11:29:23.007Z,1964.00
2022-11-15T11:30:22.938Z,1972.00
2022-11-15T11:31:22.857Z,1968.00
2022-11-15T11:32:22.781Z,1968.00
2022-11-15T11:33:22.704Z,1940.00
2022-11-15T11:34:22.623Z,1944.00
2022-11-15T11:35:22.551Z,1888.00
2022-11-15T11:36:22.473Z,1896.00
2022-11-15T11:37:22.397Z,1916.00
2022-11-15T11:38:22.317Z,1916.00
2022-11-15T11:39:22.237Z,1904.00
2022-11-15T11:40:22.165Z,1880.00
2022-11-15T11:41:22.082Z,1852.00
2022-11-15T11:42:22.006Z,1824.00
2022-11-15T11:43:21.930Z,1832.00
2022-11-15T11:44:21.853Z,1828.00
2022-11-15T11:45:21.770Z,1796.00
2022-11-15T11:46:21.699Z,1756.00
2022-11-15T11:47:21.620Z,1736.00
2022-11-15T11:48:21.545Z,1664.00
2022-11-15T11:49:21.464Z,1664.00
2022-11-15T11:50:21.389Z,1684.00
2022-11-15T11:51:21.316Z,1776.00
2022-11-15T11:52:21.234Z,1776.00
2022-11-15T11:53:21.160Z,1792.00
2022-11-15T11:54:21.286Z,1760.00
2022-11-15T11:55:21.006Z,1748.00
2022-11-15T11:56:20.923Z,1676.00
2022-11-15T11:57:20.848Z,1600.00
2022-11-15T11:58:20.767Z,1248.00
2022-11-15T11:59:20.692Z,1624.00
2022-11-15T12:00:20.612Z,1608.00
2022-11-15T12:01:20.546Z,1692.00
2022-11-15T12:02:20.521Z,1764.00
2022-11-15T12:03:20.416Z,1772.00
2022-11-15T12:04:20.307Z,1788.00
2022-11-15T12:05:20.230Z,1816.00
2022-11-15T12:06:20.149Z,1840.00
2022-11-15T12:07:20.121Z,1860.00
2022-11-15T12:08:19.993Z,1852.00
2022-11-15T12:09:19.919Z,1876.00
2022-11-15T12:10:19.844Z,1820.00
2022-11-15T12:11:19.770Z,1808.00
2022-11-15T12:12:19.688Z,1744.00
2022-11-15T12:13:19.614Z,1796.00
2022-11-15T12:14:19.539Z,1376.00
2022-11-15T12:15:19.456Z,1064.00
2022-11-15T12:16:19.384Z,1036.00
2022-11-15T12:17:19.303Z,1320.00
2022-11-15T12:18:19.225Z,1640.00
2022-11-15T12:19:19.152Z,1492.00
2022-11-15T12:20:19.070Z,1476.00
2022-11-15T12:21:22.780Z,1636.00
2022-11-15T12:22:18.920Z,1380.00
2022-11-15T12:23:18.841Z,1332.00
2022-11-15T12:24:18.784Z,1748.00
2022-11-15T12:25:18.690Z,2048.00
2022-11-15T12:26:18.616Z,2040.00
2022-11-15T12:27:23.272Z,1968.00
2022-11-15T12:28:18.456Z,1976.00
2022-11-15T12:29:18.381Z,1880.00
2022-11-15T12:30:18.300Z,1836.00
2022-11-15T12:31:18.224Z,1876.00
2022-11-15T12:32:18.143Z,1872.00
2022-11-15T12:33:18.066Z,1892.00
2022-11-15T12:34:17.991Z,1892.00
2022-11-15T12:35:17.928Z,1912.00
2022-11-15T12:36:17.831Z,1900.00
2022-11-15T12:37:17.761Z,1868.00
2022-11-15T12:38:17.683Z,1704.00
2022-11-15T12:39:17.605Z,816.00
2022-11-15T12:40:17.528Z,400.00
2022-11-15T12:41:17.455Z,364.00
2022-11-15T12:42:17.377Z,340.00
2022-11-15T12:43:17.297Z,324.00